Time;durP1;ratioP1;P1;durP2;ratioP2;P2;SDS_P1;SDS_P2;PMS_P1;PMS_P2;Temp;Humidity;BMP_temperature;BMP_pressure;BME280_temperature;BME280_humidity;BME280_pressure;Samples;Min_cycle;Max_cycle;Signal;HPM_P1;HPM_P2
2022/05/20 00:00:11;;;;;;;0.20;0.20;;;;;;;17.57;34.69;101214.69;5032640;28;20124;-69
2022/05/20 00:02:36;;;;;;;0.20;0.20;;;;;;;17.58;34.39;101223.94;5032850;28;20349;-69
2022/05/20 00:05:03;;;;;;;0.20;0.20;;;;;;;17.51;34.41;101221.88;5032905;28;20120;-69
2022/05/20 00:07:28;;;;;;;0.20;0.20;;;;;;;17.49;34.39;101221.47;5032612;28;20060;-69
2022/05/20 00:09:54;;;;;;;0.20;0.20;;;;;;;17.47;34.56;101221.84;5032527;28;20080;-69
2022/05/20 00:12:20;;;;;;;0.20;0.20;;;;;;;17.48;34.62;101226.28;5032599;28;20037;-70
2022/05/20 00:14:46;;;;;;;0.20;0.20;;;;;;;17.44;34.61;101219.81;5032505;28;20025;-68
2022/05/20 00:17:12;;;;;;;0.20;0.20;;;;;;;17.42;35.19;101216.56;5032734;28;20025;-68
2022/05/20 00:19:37;;;;;;;0.20;0.20;;;;;;;17.39;35.18;101222.97;5032831;28;20457;-69
2022/05/20 00:22:05;;;;;;;0.20;0.20;;;;;;;17.34;35.29;101219.69;5032364;28;20124;-69
2022/05/20 00:24:31;;;;;;;0.20;0.20;;;;;;;17.34;35.73;101225.31;5032327;28;20522;-67
2022/05/20 00:26:57;;;;;;;0.20;0.20;;;;;;;17.28;36.39;101217.22;5032344;28;20040;-69
2022/05/20 00:29:23;;;;;;;0.20;0.20;;;;;;;17.28;36.39;101225.66;5032306;28;20029;-69
2022/05/20 00:31:48;;;;;;;0.20;0.20;;;;;;;17.29;36.36;101215.19;5032346;28;20064;-67
2022/05/20 00:34:14;;;;;;;0.20;0.20;;;;;;;17.26;36.15;101218.81;5032250;28;20034;-69
2022/05/20 00:36:39;;;;;;;0.20;0.20;;;;;;;17.18;36.55;101220.69;5032256;28;20028;-68
2022/05/20 00:39:05;;;;;;;0.20;0.20;;;;;;;17.06;36.77;101217.34;5031909;28;20034;-69
2022/05/20 00:41:30;;;;;;;0.20;0.20;;;;;;;16.97;37.04;101215.59;5032132;28;20052;-69
2022/05/20 00:43:56;;;;;;;0.20;0.20;;;;;;;16.86;36.07;101206.22;5032124;28;20045;-68
2022/05/20 00:46:27;;;;;;;0.10;0.10;;;;;;;16.76;36.66;101216.13;5031910;28;20108;-68
2022/05/20 00:49:02;;;;;;;0.20;0.20;;;;;;;16.68;36.02;101211.59;5032169;28;20117;-67
2022/05/20 00:51:32;;;;;;;0.20;0.20;;;;;;;16.58;36.30;101212.22;5032865;28;20056;-67
2022/05/20 00:54:27;;;;;;;0.20;0.20;;;;;;;16.66;37.03;101221.56;5032366;28;20030;-67
2022/05/20 00:57:03;;;;;;;0.20;0.20;;;;;;;16.69;36.42;101218.81;5032100;28;20108;-68
2022/05/20 00:59:33;;;;;;;0.10;0.10;;;;;;;16.83;36.80;101228.66;5032300;28;20026;-67
2022/05/20 01:02:06;;;;;;;0.20;0.20;;;;;;;16.83;36.80;101214.59;5031807;28;20026;-68
2022/05/20 01:04:32;;;;;;;0.20;0.20;;;;;;;16.79;36.78;101222.19;5032594;28;20409;-69
2022/05/20 01:06:59;;;;;;;0.20;0.20;;;;;;;16.92;36.84;101223.56;5032282;28;20104;-68
2022/05/20 01:09:24;;;;;;;0.20;0.20;;;;;;;16.87;36.38;101223.91;5032584;28;20132;-67
2022/05/20 01:11:50;;;;;;;0.20;0.20;;;;;;;16.93;35.58;101222.38;5032053;28;20065;-69
2022/05/20 01:14:25;;;;;;;0.20;0.20;;;;;;;16.80;36.23;101218.19;5032044;28;20029;-68
2022/05/20 01:16:52;;;;;;;0.20;0.20;;;;;;;16.87;35.89;101219.09;5036392;28;20030;-67
2022/05/20 01:19:31;;;;;;;0.20;0.20;;;;;;;16.81;35.72;101211.38;5035728;28;20025;-68
2022/05/20 01:21:56;;;;;;;0.20;0.20;;;;;;;16.88;35.65;101214.28;5035742;28;20105;-68
2022/05/20 01:24:22;;;;;;;0.20;0.20;;;;;;;16.80;35.62;101223.81;5037082;28;20136;-68
2022/05/20 01:26:48;;;;;;;0.20;0.20;;;;;;;16.75;36.14;101217.31;5038886;28;20028;-69
2022/05/20 01:29:13;;;;;;;0.20;0.20;;;;;;;16.67;36.41;101218.41;5039071;28;20036;-67
2022/05/20 01:31:39;;;;;;;0.20;0.20;;;;;;;16.76;35.51;101210.50;5038789;28;20552;-68
2022/05/20 01:34:04;;;;;;;0.20;0.20;;;;;;;16.80;36.01;101224.63;5038777;28;20036;-68
2022/05/20 01:36:30;;;;;;;0.20;0.20;;;;;;;16.76;35.59;101221.75;5038684;28;20040;-67
2022/05/20 01:38:59;;;;;;;0.20;0.20;;;;;;;16.77;35.25;101214.94;5039164;28;20115;-69
2022/05/20 01:41:42;;;;;;;0.20;0.20;;;;;;;16.71;36.17;101221.28;5038530;28;20472;-68
2022/05/20 01:44:21;;;;;;;0.20;0.20;;;;;;;16.68;36.71;101222.81;5039129;28;20021;-68
2022/05/20 01:46:46;;;;;;;0.20;0.20;;;;;;;16.77;36.80;101216.94;5038793;28;20476;-67
2022/05/20 01:49:33;;;;;;;0.20;0.20;;;;;;;16.75;37.64;101220.13;5039090;28;20055;-68
2022/05/20 01:52:18;;;;;;;0.20;0.20;;;;;;;16.81;37.19;101219.81;5038462;28;20029;-67
2022/05/20 01:54:54;;;;;;;0.20;0.20;;;;;;;16.57;37.69;101224.66;5038627;28;20487;-67
2022/05/20 01:57:26;;;;;;;0.20;0.20;;;;;;;16.46;37.77;101232.13;5038312;28;20083;-67
2022/05/20 02:00:00;;;;;;;0.10;0.10;;;;;;;16.24;38.62;101228.97;5038220;28;20074;-69
2022/05/20 02:02:32;;;;;;;;;;;;;;;16.13;38.40;101213.94;5038684;28;20036;-67
2022/05/20 02:05:15;;;;;;;0.20;0.20;;;;;;;16.10;38.19;101225.94;5038180;28;20383;-68
2022/05/20 02:07:44;;;;;;;0.10;0.10;;;;;;;15.98;38.36;101217.69;5056639;28;20021;-67
2022/05/20 02:10:16;;;;;;;0.20;0.20;;;;;;;16.02;38.61;101221.34;5038191;28;20048;-68
2022/05/20 02:12:47;;;;;;;0.20;0.20;;;;;;;16.09;38.04;101217.88;5038401;28;20025;-67
2022/05/20 02:15:20;;;;;;;0.20;0.20;;;;;;;16.21;38.13;101226.91;5037999;28;20029;-69
2022/05/20 02:17:51;;;;;;;0.20;0.20;;;;;;;16.20;37.83;101224.47;5038568;28;20478;-69
2022/05/20 02:20:30;;;;;;;0.20;0.20;;;;;;;16.20;37.73;101230.09;5037998;28;20028;-68
2022/05/20 02:23:01;;;;;;;0.20;0.20;;;;;;;16.26;38.05;101233.41;5037797;28;20052;-68
2022/05/20 02:25:33;;;;;;;0.20;0.20;;;;;;;16.14;38.84;101232.41;5033956;28;20056;-68
2022/05/20 02:28:11;;;;;;;0.20;0.20;;;;;;;16.19;38.43;101234.06;5034478;28;20025;-67
2022/05/20 02:30:37;;;;;;;0.20;0.20;;;;;;;15.98;38.80;101221.31;5034457;28;20037;-67
2022/05/20 02:33:26;;;;;;;0.20;0.20;;;;;;;15.79;38.57;101193.31;5034991;28;20102;-68
2022/05/20 02:35:52;;;;;;;0.20;0.20;;;;;;;16.00;39.20;101223.75;5034575;28;20087;-69
2022/05/20 02:38:23;;;;;;;0.20;0.20;;;;;;;15.97;38.44;101227.28;5034993;28;20029;-68
2022/05/20 02:40:51;;;;;;;0.20;0.20;;;;;;;15.94;38.50;101222.44;5034422;28;20427;-68
2022/05/20 02:43:18;;;;;;;0.20;0.20;;;;;;;16.01;38.59;101228.16;5034200;28;20472;-68
2022/05/20 02:45:46;;;;;;;0.20;0.20;;;;;;;16.01;38.17;101222.56;5034198;28;20067;-68
2022/05/20 02:48:15;;;;;;;0.10;0.10;;;;;;;15.81;38.14;101188.13;5034120;28;20021;-67
2022/05/20 02:50:41;;;;;;;0.20;0.20;;;;;;;15.94;38.83;101228.06;5034108;28;20064;-67
2022/05/20 02:53:07;;;;;;;0.20;0.20;;;;;;;15.93;38.63;101227.25;5033972;28;20164;-68
2022/05/20 02:55:33;;;;;;;0.20;0.20;;;;;;;15.83;38.67;101227.06;5034278;28;20060;-66
2022/05/20 02:57:59;;;;;;;0.20;0.20;;;;;;;15.77;39.61;101234.97;5033880;28;20059;-68
2022/05/20 03:05:53;;;;;;;;;;;;;;;15.81;39.07;101240.63;5035990;28;20064;-67
2022/05/20 03:08:19;;;;;;;0.20;0.20;;;;;;;15.83;38.99;101235.47;5034527;28;20336;-66
2022/05/20 03:10:45;;;;;;;0.20;0.20;;;;;;;15.87;39.27;101236.31;5033654;28;20428;-68
2022/05/20 03:13:12;;;;;;;0.20;0.20;;;;;;;15.74;40.29;101234.91;5033895;28;20034;-69
2022/05/20 03:15:39;;;;;;;0.20;0.20;;;;;;;15.72;39.83;101238.06;5033607;28;20022;-67
2022/05/20 03:18:06;;;;;;;0.20;0.20;;;;;;;15.65;40.29;101238.75;5033530;28;20083;-67
2022/05/20 03:20:32;;;;;;;0.10;0.10;;;;;;;15.55;40.44;101242.13;5033377;28;20022;-68
2022/05/20 03:22:57;;;;;;;0.20;0.20;;;;;;;15.49;40.27;101231.56;5033716;28;20037;-68
2022/05/20 03:25:23;;;;;;;0.20;0.20;;;;;;;15.59;39.38;101243.00;5033177;28;20574;-67
2022/05/20 03:27:49;;;;;;;0.20;0.20;;;;;;;15.59;39.70;101251.41;5033343;28;20104;-69
2022/05/20 03:30:15;;;;;;;0.20;0.20;;;;;;;15.48;40.43;101250.41;5033566;28;20037;-69
2022/05/20 03:32:40;;;;;;;0.20;0.20;;;;;;;15.65;39.76;101243.53;5033272;28;20028;-68
2022/05/20 03:35:07;;;;;;;0.20;0.20;;;;;;;15.48;40.18;101244.78;5033467;28;20033;-68
2022/05/20 03:37:33;;;;;;;0.20;0.20;;;;;;;15.36;40.35;101251.38;5033015;28;20041;-69
2022/05/20 03:39:59;;;;;;;0.20;0.20;;;;;;;15.43;39.74;101242.28;5033340;28;20033;-68
2022/05/20 03:42:25;;;;;;;0.20;0.20;;;;;;;15.48;39.45;101247.59;5033030;28;20040;-68
2022/05/20 03:44:51;;;;;;;0.20;0.20;;;;;;;15.42;39.94;101257.50;5033062;28;20029;-67
2022/05/20 03:47:17;;;;;;;0.20;0.20;;;;;;;15.37;40.55;101257.78;5033014;28;20026;-68
2022/05/20 03:49:43;;;;;;;0.20;0.20;;;;;;;15.34;40.73;101259.34;5032963;28;20029;-68
2022/05/20 03:52:09;;;;;;;0.20;0.20;;;;;;;15.43;40.54;101254.31;5033502;28;20029;-69
2022/05/20 03:54:35;;;;;;;0.20;0.20;;;;;;;15.37;40.86;101255.78;5033671;28;20461;-67
2022/05/20 03:57:02;;;;;;;0.20;0.20;;;;;;;15.52;40.66;101258.91;5033080;28;20036;-67
2022/05/20 03:59:28;;;;;;;0.20;0.20;;;;;;;15.51;40.47;101266.50;5032768;28;20147;-69
2022/05/20 04:01:57;;;;;;;0.20;0.20;;;;;;;15.64;39.55;101265.16;5032645;28;20484;-68
2022/05/20 04:04:39;;;;;;;0.20;0.20;;;;;;;15.76;39.98;101263.38;5032773;28;20087;-67
2022/05/20 04:07:14;;;;;;;0.20;0.20;;;;;;;15.91;39.63;101270.88;5032802;28;20491;-67
2022/05/20 04:09:43;;;;;;;0.20;0.20;;;;;;;16.73;38.60;101278.72;5033345;28;20387;-67
2022/05/20 04:12:16;;;;;;;0.20;0.20;;;;;;;17.44;37.20;101269.63;5032592;28;20057;-68
2022/05/20 04:14:42;;;;;;;0.20;0.20;;;;;;;18.04;35.79;101275.94;5032844;28;20357;-67
2022/05/20 04:17:08;;;;;;;0.20;0.20;;;;;;;18.65;34.77;101281.31;5033058;28;20056;-67
2022/05/20 04:19:34;;;;;;;0.10;0.10;;;;;;;19.27;34.08;101273.63;5032739;28;20127;-68
2022/05/20 04:22:05;;;;;;;0.20;0.20;;;;;;;19.84;33.20;101273.84;5032355;28;20132;-68
2022/05/20 04:24:30;;;;;;;0.20;0.20;;;;;;;20.35;32.42;101283.22;5035156;28;20060;-69
2022/05/20 04:26:56;;;;;;;0.20;0.20;;;;;;;20.81;31.72;101280.38;5036225;28;20372;-68
2022/05/20 04:29:21;;;;;;;0.20;0.20;;;;;;;21.35;31.05;101289.53;5035657;28;20028;-68
2022/05/20 04:31:49;;;;;;;0.20;0.20;;;;;;;21.74;30.43;101291.41;5035562;28;20032;-67
2022/05/20 04:34:15;;;;;;;0.10;0.10;;;;;;;22.12;29.90;101291.59;5035582;28;20029;-68
2022/05/20 04:36:40;;;;;;;0.10;0.10;;;;;;;22.54;28.98;101295.31;5035578;28;20112;-68
2022/05/20 04:39:06;;;;;;;0.20;0.20;;;;;;;23.11;28.14;101291.94;5018728;28;20052;-67
2022/05/20 04:47:03;;;;;;;0.10;0.10;;;;;;;24.39;26.92;101300.78;5053510;28;20044;-67
2022/05/20 04:49:31;;;;;;;0.10;0.10;;;;;;;24.69;26.58;101308.41;5038065;28;20032;-68
2022/05/20 04:51:57;;;;;;;0.10;0.10;;;;;;;25.31;25.74;101309.72;5023246;28;20056;-69
2022/05/20 04:57:08;;;;;;;0.10;0.10;;;;;;;25.89;25.55;101315.03;5057699;28;20070;-68
2022/05/20 04:59:38;;;;;;;0.20;0.20;;;;;;;26.10;24.51;101303.97;5039385;28;20400;-69
2022/05/20 05:02:05;;;;;;;0.10;0.10;;;;;;;26.36;24.23;101307.78;5039416;28;20025;-69
2022/05/20 05:04:31;;;;;;;0.10;0.10;;;;;;;26.56;23.93;101316.28;5039417;28;20502;-69
2022/05/20 05:06:57;;;;;;;0.17;0.17;;;;;;;26.93;23.86;101316.97;5039296;28;20124;-69
2022/05/20 05:09:23;;;;;;;0.10;0.10;;;;;;;27.19;23.46;101320.00;5039038;28;20071;-69
2022/05/20 05:11:49;;;;;;;0.10;0.10;;;;;;;27.02;22.87;101322.06;5039491;28;20052;-69
2022/05/20 05:14:15;;;;;;;0.10;0.10;;;;;;;27.46;22.44;101323.28;5038888;28;20032;-68
2022/05/20 05:16:41;;;;;;;0.10;0.10;;;;;;;27.67;21.52;101328.38;5038845;28;20475;-68
2022/05/20 05:19:07;;;;;;;0.13;0.13;;;;;;;27.55;20.81;101326.28;5039149;28;20032;-68
2022/05/20 05:21:33;;;;;;;0.10;0.10;;;;;;;27.72;20.18;101323.38;5038992;28;20518;-71
2022/05/20 05:24:00;;;;;;;0.10;0.10;;;;;;;28.04;20.62;101320.34;5038980;28;20158;-70
2022/05/20 05:26:31;;;;;;;0.10;0.10;;;;;;;28.60;20.10;101318.94;5056758;28;20049;-70
2022/05/20 05:29:01;;;;;;;0.10;0.10;;;;;;;28.31;19.85;101328.47;5038998;28;20033;-73
2022/05/20 05:31:26;;;;;;;0.10;0.10;;;;;;;28.91;18.47;101321.97;5038694;28;20523;-71
2022/05/20 05:33:58;;;;;;;0.10;0.10;;;;;;;28.34;21.44;101323.94;5038863;28;20056;-72
2022/05/20 05:36:28;;;;;;;0.10;0.10;;;;;;;28.68;20.06;101321.13;5057026;28;20033;-71
2022/05/20 05:38:57;;;;;;;0.10;0.10;;;;;;;29.34;20.12;101334.78;5038836;28;20061;-71
2022/05/20 05:41:28;;;;;;;0.10;0.10;;;;;;;28.89;19.98;101331.03;5039581;28;20036;-72
2022/05/20 05:43:55;;;;;;;0.10;0.10;;;;;;;28.16;22.22;101336.69;5033969;28;20033;-70
2022/05/20 05:46:26;;;;;;;0.10;0.10;;;;;;;29.15;17.89;101331.78;5038816;28;20033;-70
2022/05/20 05:49:03;;;;;;;0.10;0.10;;;;;;;29.77;18.63;101341.81;5039341;28;20079;-70
2022/05/20 05:51:36;;;;;;;0.10;0.10;;;;;;;28.88;18.04;101334.38;5057310;28;20036;-72
2022/05/20 05:54:13;;;;;;;0.10;0.10;;;;;;;28.36;19.60;101338.56;5038514;28;20036;-71
2022/05/20 05:56:40;;;;;;;0.10;0.10;;;;;;;28.67;20.08;101341.63;5056473;28;20035;-71
2022/05/20 05:59:10;;;;;;;0.10;0.10;;;;;;;28.44;20.48;101348.50;5057021;28;20021;-70
2022/05/20 06:01:40;;;;;;;0.10;0.10;;;;;;;27.91;20.74;101356.69;5055497;28;20025;-70
2022/05/20 06:04:09;;;;;;;0.10;0.10;;;;;;;27.42;20.88;101365.44;5038130;28;20021;-70
2022/05/20 06:06:42;;;;;;;0.10;0.10;;;;;;;27.69;21.08;101354.44;5038925;28;20025;-70
2022/05/20 06:09:08;;;;;;;0.10;0.10;;;;;;;27.40;21.74;101359.38;5038252;28;20029;-72
2022/05/20 06:11:37;;;;;;;0.10;0.10;;;;;;;26.97;22.13;101359.72;5038191;28;20368;-71
2022/05/20 06:14:07;;;;;;;0.10;0.10;;;;;;;27.39;22.26;101370.03;5037974;28;20024;-71
2022/05/20 06:16:36;;;;;;;0.10;0.10;;;;;;;27.11;22.79;101360.19;5038295;28;20033;-72
2022/05/20 06:19:05;;;;;;;0.10;0.10;;;;;;;27.03;23.08;101364.44;5021595;28;20041;-71
2022/05/20 06:21:33;;;;;;;0.10;0.10;;;;;;;27.54;22.37;101370.44;5038551;28;20456;-71
2022/05/20 06:24:03;;;;;;;0.10;0.10;;;;;;;27.82;22.50;101368.00;5056089;28;20021;-71
2022/05/20 06:26:33;;;;;;;0.10;0.10;;;;;;;27.83;21.58;101370.41;5055545;28;20056;-73
2022/05/20 06:28:59;;;;;;;0.10;0.10;;;;;;;28.45;20.03;101373.03;5038025;28;20021;-71
2022/05/20 06:31:25;;;;;;;0.10;0.10;;;;;;;27.20;20.66;101365.25;5037727;28;20482;-70
2022/05/20 06:33:51;;;;;;;0.10;0.10;;;;;;;28.07;22.79;101376.66;5037234;28;20032;-70
2022/05/20 06:41:45;;;;;;;0.10;0.10;;;;;;;29.20;19.83;101387.69;5054690;28;20102;-72
2022/05/20 06:44:11;;;;;;;0.10;0.10;;;;;;;29.30;18.38;101380.00;5037477;28;20468;-70
2022/05/20 06:46:37;;;;;;;0.10;0.10;;;;;;;28.93;19.06;101388.22;5037477;28;20396;-69
2022/05/20 06:49:03;;;;;;;0.10;0.10;;;;;;;29.11;19.39;101384.75;5037080;28;20033;-70
2022/05/20 06:51:32;;;;;;;0.10;0.10;;;;;;;28.67;19.69;101387.44;5036786;28;20460;-69
2022/05/20 06:54:00;;;;;;;0.10;0.10;;;;;;;28.23;19.80;101386.38;5036835;28;20063;-69
2022/05/20 06:56:30;;;;;;;0.10;0.10;;;;;;;27.35;21.21;101382.78;5020658;28;20033;-70
2022/05/20 06:58:58;;;;;;;0.10;0.10;;;;;;;27.90;19.90;101380.81;5036772;28;20025;-69
2022/05/20 07:01:23;;;;;;;0.10;0.10;;;;;;;28.18;19.47;101382.84;5036761;28;20024;-69
2022/05/20 07:03:49;;;;;;;0.10;0.10;;;;;;;28.78;19.06;101387.09;5036691;28;20116;-69
2022/05/20 07:06:16;;;;;;;0.10;0.10;;;;;;;28.53;19.22;101388.69;5037254;28;20063;-70
2022/05/20 07:08:48;;;;;;;0.10;0.10;;;;;;;28.46;18.58;101388.94;5036849;28;20029;-69
2022/05/20 07:11:18;;;;;;;0.10;0.10;;;;;;;27.59;19.77;101391.91;5036848;28;20031;-69
2022/05/20 07:13:44;;;;;;;0.10;0.10;;;;;;;28.23;19.97;101392.09;5035579;28;20025;-69
2022/05/20 07:16:09;;;;;;;0.10;0.10;;;;;;;28.22;20.44;101393.34;5036908;28;20064;-69
2022/05/20 07:18:35;;;;;;;0.10;0.10;;;;;;;28.50;21.07;101389.63;5036380;28;20056;-68
2022/05/20 07:21:02;;;;;;;0.10;0.10;;;;;;;29.67;20.64;101390.53;5036300;28;20040;-69
2022/05/20 07:23:29;;;;;;;0.10;0.10;;;;;;;28.73;20.63;101396.25;5036816;28;20031;-71
2022/05/20 07:25:55;;;;;;;0.10;0.10;;;;;;;29.11;20.32;101387.59;5032594;28;20492;-68
2022/05/20 07:28:21;;;;;;;0.10;0.10;;;;;;;28.70;20.27;101387.31;5032943;28;20047;-69
2022/05/20 07:30:47;;;;;;;0.10;0.10;;;;;;;28.08;20.47;101395.41;5032925;28;20040;-68
2022/05/20 07:33:13;;;;;;;0.10;0.10;;;;;;;28.69;19.41;101391.44;5033231;28;20444;-68
2022/05/20 07:35:39;;;;;;;0.10;0.10;;;;;;;28.90;19.26;101389.13;5033119;28;20033;-69
2022/05/20 07:38:06;;;;;;;0.10;0.10;;;;;;;29.76;19.31;101392.63;5032782;28;20493;-70
2022/05/20 07:40:32;;;;;;;0.10;0.10;;;;;;;30.29;18.06;101391.84;5032709;28;20029;-70
2022/05/20 07:42:58;;;;;;;0.10;0.10;;;;;;;30.96;17.90;101380.47;5032790;28;20040;-69
2022/05/20 07:45:24;;;;;;;0.10;0.10;;;;;;;30.01;18.00;101371.59;5033220;28;20181;-69
2022/05/20 07:47:50;;;;;;;0.10;0.10;;;;;;;29.91;18.21;101382.22;5033206;28;20025;-69
2022/05/20 07:50:16;;;;;;;0.10;0.10;;;;;;;30.36;17.84;101389.53;5032548;28;20048;-69
2022/05/20 07:55:36;;;;;;;0.10;0.10;;;;;;;31.36;17.01;101396.00;5033395;28;20388;-70
2022/05/20 07:58:07;;;;;;;0.10;0.10;;;;;;;32.40;16.14;101394.94;5033816;28;20033;-69
2022/05/20 08:00:33;;;;;;;0.10;0.10;;;;;;;32.96;15.80;101399.13;5032651;28;20484;-70
2022/05/20 08:03:01;;;;;;;0.10;0.10;;;;;;;32.84;15.59;101393.09;5032985;28;20441;-70
2022/05/20 08:05:28;;;;;;;0.10;0.10;;;;;;;31.82;15.71;101393.94;5032347;28;20036;-70
2022/05/20 08:07:59;;;;;;;0.10;0.10;;;;;;;29.58;17.80;101392.50;5032531;28;20025;-70
2022/05/20 08:10:27;;;;;;;0.10;0.10;;;;;;;29.65;17.91;101387.28;5032276;28;20040;-70
2022/05/20 08:12:53;;;;;;;0.10;0.10;;;;;;;29.74;17.41;101383.72;5032497;28;20033;-70
2022/05/20 08:15:19;;;;;;;0.10;0.10;;;;;;;29.86;17.95;101387.75;5033986;28;20033;-70
2022/05/20 08:17:45;;;;;;;0.10;0.10;;;;;;;30.78;17.37;101386.16;5032245;28;20171;-69
2022/05/20 08:20:16;;;;;;;0.10;0.10;;;;;;;30.68;17.34;101379.59;5032080;28;20041;-69
2022/05/20 08:22:42;;;;;;;0.10;0.10;;;;;;;29.65;18.39;101387.28;5016723;28;20044;-71
2022/05/20 08:25:08;;;;;;;0.10;0.10;;;;;;;30.81;17.83;101379.47;5031462;28;20111;-69
2022/05/20 08:27:34;;;;;;;0.10;0.10;;;;;;;30.84;17.35;101374.84;5032408;28;20043;-70
2022/05/20 08:30:27;;;;;;;0.10;0.10;;;;;;;29.72;18.63;101366.16;5032235;28;20033;-69
2022/05/20 08:32:52;;;;;;;0.10;0.10;;;;;;;28.88;19.74;101383.06;5031441;28;20037;-69
2022/05/20 08:35:20;;;;;;;0.10;0.10;;;;;;;29.59;19.10;101371.97;5032844;28;20038;-70
2022/05/20 08:37:48;;;;;;;0.10;0.10;;;;;;;29.90;18.65;101348.28;5032559;28;20060;-70
2022/05/20 08:40:23;;;;;;;0.10;0.10;;;;;;;29.98;18.53;101375.41;5032811;28;20109;-70
2022/05/20 08:42:50;;;;;;;0.10;0.10;;;;;;;30.50;18.55;101370.88;5032030;28;20480;-71
2022/05/20 08:45:19;;;;;;;0.10;0.10;;;;;;;30.80;18.32;101362.72;5032231;28;20034;-71
2022/05/20 08:47:47;;;;;;;0.10;0.10;;;;;;;31.19;18.08;101364.69;5031939;28;20037;-70
2022/05/20 08:50:18;;;;;;;0.10;0.10;;;;;;;31.10;18.01;101370.41;5032729;28;20021;-70
2022/05/20 08:52:44;;;;;;;0.10;0.10;;;;;;;31.01;18.33;101370.41;5031909;28;20495;-70
2022/05/20 08:55:11;;;;;;;0.10;0.10;;;;;;;30.65;17.81;101366.16;5031885;28;20017;-71
2022/05/20 08:57:37;;;;;;;0.10;0.10;;;;;;;30.83;17.63;101336.69;5032118;28;20033;-70
2022/05/20 09:00:10;;;;;;;0.10;0.10;;;;;;;30.96;17.39;101357.47;5015904;28;20385;-72
2022/05/20 09:02:36;;;;;;;0.10;0.10;;;;;;;30.73;18.11;101361.72;5032640;28;20082;-71
2022/05/20 09:05:18;;;;;;;0.10;0.10;;;;;;;31.28;17.71;101361.03;5015788;28;20030;-71
2022/05/20 09:07:59;;;;;;;0.10;0.10;;;;;;;30.75;17.61;101367.00;5032035;28;20392;-70
2022/05/20 09:10:41;;;;;;;0.10;0.10;;;;;;;31.34;17.27;101359.13;5031682;28;20036;-71
2022/05/20 09:16:30;;;;;;;0.10;0.10;;;;;;;32.43;16.16;101359.38;5033539;28;20393;-71
2022/05/20 09:19:15;;;;;;;0.10;0.10;;;;;;;31.97;16.98;101353.78;5032003;28;20060;-71
2022/05/20 09:21:58;;;;;;;0.10;0.10;;;;;;;32.16;16.53;101354.50;5031917;28;20477;-70
2022/05/20 09:24:24;;;;;;;0.10;0.10;;;;;;;31.45;17.13;101358.63;5017278;28;20376;-71
2022/05/20 09:27:27;;;;;;;0.10;0.10;;;;;;;32.12;16.39;101348.13;5035221;28;20025;-71
2022/05/20 09:30:00;;;;;;;0.10;0.10;;;;;;;31.37;16.98;101345.84;4984444;28;20095;-72
2022/05/20 09:32:33;;;;;;;0.10;0.10;;;;;;;31.14;17.47;101339.44;5032006;28;20033;-71
2022/05/20 09:35:17;;;;;;;0.10;0.10;;;;;;;31.72;17.61;101349.16;5035040;28;20543;-71
2022/05/20 09:37:44;;;;;;;0.10;0.10;;;;;;;31.30;18.36;101344.09;5039389;28;20032;-71
2022/05/20 09:40:21;;;;;;;0.10;0.10;;;;;;;31.68;18.28;101337.03;5038388;28;20112;-72
2022/05/20 09:43:09;;;;;;;0.10;0.10;;;;;;;31.21;18.02;101339.13;5039009;28;20075;-71
2022/05/20 09:45:48;;;;;;;0.10;0.10;;;;;;;31.03;18.52;101336.25;5038867;28;20032;-72
2022/05/20 09:48:43;;;;;;;0.08;0.08;;;;;;;31.18;18.79;101333.53;5021920;28;20108;-71
2022/05/20 09:51:21;;;;;;;0.10;0.10;;;;;;;29.99;19.83;101331.13;5027347;28;20045;-71
2022/05/20 09:54:13;;;;;;;0.10;0.10;;;;;;;31.16;19.38;101325.41;5038886;28;20033;-71
2022/05/20 09:56:43;;;;;;;0.10;0.10;;;;;;;29.92;19.55;101325.63;5038216;28;20029;-72
2022/05/20 09:59:19;;;;;;;0.10;0.10;;;;;;;30.66;19.79;101326.75;5038179;28;20032;-71
2022/05/20 10:01:59;;;;;;;0.10;0.10;;;;;;;30.03;20.13;101326.00;5037877;28;20071;-72
2022/05/20 10:04:36;;;;;;;0.10;0.10;;;;;;;30.61;19.36;101325.28;5037996;28;20036;-71
2022/05/20 10:07:07;;;;;;;0.10;0.10;;;;;;;30.47;19.88;101325.91;5038224;28;20039;-71
2022/05/20 10:09:50;;;;;;;0.00;0.00;;;;;;;31.31;18.97;101325.56;5038254;28;20422;-71
2022/05/20 10:12:24;;;;;;;;;;;;;;;30.24;19.72;101325.19;5038325;28;20029;-71
2022/05/20 10:14:56;;;;;;;0.10;0.10;;;;;;;30.06;20.04;101319.34;5037876;28;19908;-70
2022/05/20 10:17:56;;;;;;;0.10;0.10;;;;;;;29.45;20.66;101320.84;5037869;28;20590;-69
2022/05/20 10:20:41;;;;;;;0.10;0.10;;;;;;;30.33;19.76;101315.00;5037571;28;20033;-70
2022/05/20 10:23:41;;;;;;;0.10;0.10;;;;;;;30.65;19.71;101325.94;5037684;28;20488;-71
2022/05/20 10:26:13;;;;;;;0.10;0.10;;;;;;;30.37;20.39;101312.81;5034234;28;20053;-71
2022/05/20 10:34:43;;;;;;;0.08;0.08;;;;;;;30.72;20.31;101308.44;5034972;28;20526;-72
2022/05/20 10:37:33;;;;;;;0.10;0.10;;;;;;;30.60;20.56;101317.97;5034348;28;20037;-70
2022/05/20 10:40:24;;;;;;;0.10;0.10;;;;;;;30.03;20.78;101308.78;5033516;28;20029;-70
2022/05/20 10:42:56;;;;;;;0.10;0.10;;;;;;;29.78;20.69;101303.28;5034084;28;20040;-69
2022/05/20 10:48:38;;;;;;;0.10;0.10;;;;;;;30.45;21.03;101294.78;5035399;28;20447;-69
2022/05/20 10:51:16;;;;;;;0.10;0.10;;;;;;;29.93;21.24;101290.72;5034044;28;20029;-71
2022/05/20 10:54:19;;;;;;;0.10;0.10;;;;;;;29.60;21.49;101296.13;5034643;28;20059;-69
2022/05/20 10:57:13;;;;;;;0.10;0.10;;;;;;;30.32;21.58;101299.06;5034175;28;20476;-69
2022/05/20 11:00:15;;;;;;;0.10;0.10;;;;;;;29.63;21.97;101286.59;5033744;28;20120;-68
2022/05/20 11:03:38;;;;;;;0.10;0.10;;;;;;;29.04;22.03;101285.53;4992432;28;20480;-69
2022/05/20 11:06:43;;;;;;;0.00;0.00;;;;;;;29.05;22.53;101286.31;4957288;28;20038;-70
2022/05/20 11:09:33;;;;;;;0.10;0.10;;;;;;;28.71;22.53;101268.66;4897207;29;20033;-69
2022/05/20 11:12:03;;;;;;;0.10;0.10;;;;;;;29.39;22.35;101285.47;5023652;28;20038;-70
2022/05/20 11:15:27;;;;;;;0.10;0.10;;;;;;;29.58;22.00;101274.94;5033468;28;20025;-70
2022/05/20 11:18:26;;;;;;;0.10;0.10;;;;;;;29.10;22.09;101274.28;4993057;28;20045;-69
2022/05/20 11:21:03;;;;;;;0.10;0.10;;;;;;;29.62;21.82;101273.53;5016401;28;20447;-69
2022/05/20 11:23:53;;;;;;;0.10;0.10;;;;;;;30.26;21.70;101275.94;5033365;28;20074;-70
2022/05/20 11:26:37;;;;;;;0.10;0.10;;;;;;;30.76;21.24;101274.59;5033015;28;20095;-70
2022/05/20 11:29:18;;;;;;;0.10;0.10;;;;;;;30.25;21.68;101265.69;5033149;28;20061;-70
2022/05/20 11:31:53;;;;;;;0.10;0.10;;;;;;;28.96;22.39;101262.06;5033227;28;20067;-69
2022/05/20 11:34:32;;;;;;;0.10;0.10;;;;;;;29.99;22.17;101262.25;5034059;28;20030;-70
2022/05/20 11:37:27;;;;;;;0.10;0.10;;;;;;;30.25;21.35;101265.69;5033102;28;20473;-70
2022/05/20 11:40:11;;;;;;;0.10;0.10;;;;;;;29.63;21.88;101246.47;5033897;28;20070;-70
2022/05/20 11:42:55;;;;;;;0.10;0.10;;;;;;;30.01;20.73;101259.69;5033014;28;20116;-70
2022/05/20 11:46:05;;;;;;;0.10;0.10;;;;;;;29.25;21.76;101249.56;5033007;28;20056;-70
2022/05/20 11:48:46;;;;;;;0.10;0.10;;;;;;;28.67;23.13;101216.44;4971827;28;20048;-69
2022/05/20 11:51:34;;;;;;;0.10;0.10;;;;;;;29.01;22.62;101240.59;5032909;28;20506;-69
2022/05/20 11:54:11;;;;;;;0.10;0.10;;;;;;;29.07;22.37;101237.94;5033055;28;20056;-69
2022/05/20 11:56:42;;;;;;;0.10;0.10;;;;;;;29.36;22.06;101243.41;5033749;28;20091;-69
2022/05/20 11:59:17;;;;;;;0.10;0.10;;;;;;;28.94;22.06;101241.69;5032387;28;20451;-68
2022/05/20 12:01:46;;;;;;;0.10;0.10;;;;;;;28.74;21.77;101226.03;5033478;28;20487;-68
2022/05/20 12:04:14;;;;;;;0.10;0.10;;;;;;;29.00;22.39;101244.75;5032365;28;20156;-69
2022/05/20 12:06:53;;;;;;;0.10;0.10;;;;;;;29.41;22.02;101235.00;5016229;28;20025;-68
2022/05/20 12:09:33;;;;;;;0.10;0.10;;;;;;;28.74;21.96;101223.97;5032669;28;20129;-70
2022/05/20 12:12:24;;;;;;;0.10;0.10;;;;;;;28.43;22.68;101218.09;5032147;28;20116;-69
2022/05/20 12:15:11;;;;;;;0.10;0.10;;;;;;;28.84;22.13;101219.13;5032422;28;20025;-69
2022/05/20 12:17:44;;;;;;;0.10;0.10;;;;;;;28.57;23.20;101216.81;5032599;28;20035;-69
2022/05/20 12:25:57;;;;;;;0.10;0.10;;;;;;;28.85;23.12;101215.78;5046773;28;20078;-69
2022/05/20 12:28:23;;;;;;;0.10;0.10;;;;;;;28.80;23.47;101207.78;5036148;28;20025;-67